createdAt,value
2023-12-08T00:01:15.209Z,93.18
2023-12-08T00:03:44.028Z,93.65
2023-12-08T00:06:12.762Z,93.47
2023-12-08T00:08:42.168Z,93.31
2023-12-08T00:11:11.637Z,93.48
2023-12-08T00:13:40.021Z,93.44
2023-12-08T00:16:09.658Z,93.42
2023-12-08T00:18:38.074Z,93.67
2023-12-08T00:21:07.327Z,93.50
2023-12-08T00:23:36.122Z,93.59
2023-12-08T00:26:05.070Z,93.53
2023-12-08T00:28:33.489Z,93.67
2023-12-08T00:31:01.976Z,93.70
2023-12-08T00:33:30.515Z,93.52
2023-12-08T00:35:59.236Z,93.51
2023-12-08T00:38:27.903Z,93.56
2023-12-08T00:40:57.276Z,93.64
2023-12-08T00:43:25.577Z,93.73
2023-12-08T00:45:54.283Z,93.65
2023-12-08T00:48:23.007Z,93.74
2023-12-08T00:50:51.365Z,93.59
2023-12-08T00:53:19.691Z,93.87
2023-12-08T00:55:47.959Z,93.73
2023-12-08T00:58:17.437Z,93.60
2023-12-08T01:00:45.912Z,93.92
2023-12-08T01:03:15.103Z,93.59
2023-12-08T01:05:43.652Z,93.86
2023-12-08T01:08:11.942Z,93.78
2023-12-08T01:10:40.206Z,93.77
2023-12-08T01:13:09.100Z,93.61
2023-12-08T01:15:38.078Z,93.73
2023-12-08T01:18:07.134Z,93.62
2023-12-08T01:20:36.820Z,93.67
2023-12-08T01:23:05.243Z,93.68
2023-12-08T01:25:33.601Z,93.49
2023-12-08T01:28:01.951Z,93.55
2023-12-08T01:30:30.286Z,93.49
2023-12-08T01:32:58.778Z,93.60
2023-12-08T01:35:27.578Z,93.43
2023-12-08T01:37:55.961Z,93.21
2023-12-08T01:40:24.345Z,93.38
2023-12-08T01:42:52.863Z,93.36
2023-12-08T01:45:21.621Z,93.30
2023-12-08T01:47:50.254Z,93.51
2023-12-08T01:50:19.471Z,93.43
2023-12-08T01:52:49.672Z,93.28
2023-12-08T01:55:18.608Z,93.21
2023-12-08T01:57:47.067Z,93.25
2023-12-08T02:00:16.393Z,92.89
2023-12-08T02:02:44.966Z,92.84
2023-12-08T02:05:15.225Z,92.96
2023-12-08T02:07:44.257Z,93.01
2023-12-08T02:10:12.613Z,93.12
2023-12-08T02:12:40.936Z,92.96
2023-12-08T02:15:12.172Z,93.04
2023-12-08T02:17:40.745Z,92.61
2023-12-08T02:20:11.208Z,92.33
2023-12-08T02:22:39.518Z,92.56
2023-12-08T02:25:09.067Z,92.43
2023-12-08T02:27:37.375Z,92.64
2023-12-08T02:30:08.027Z,92.51
2023-12-08T02:32:39.883Z,92.38
2023-12-08T02:35:09.418Z,92.23
2023-12-08T02:37:48.722Z,92.36
2023-12-08T02:40:17.207Z,92.22
2023-12-08T02:42:45.564Z,92.40
2023-12-08T02:45:13.953Z,92.36
2023-12-08T02:47:42.371Z,92.43
2023-12-08T02:50:12.188Z,92.47
2023-12-08T02:52:40.846Z,92.55
2023-12-08T02:55:09.526Z,92.46
2023-12-08T02:57:37.990Z,92.32
2023-12-08T03:00:11.021Z,92.66
2023-12-08T03:02:39.590Z,92.43
2023-12-08T03:05:09.382Z,92.67
2023-12-08T03:07:37.649Z,92.86
2023-12-08T03:10:08.248Z,92.86
2023-12-08T03:12:36.638Z,93.07
2023-12-08T03:15:07.597Z,92.86
2023-12-08T03:17:36.945Z,92.97
2023-12-08T03:20:07.032Z,92.79
2023-12-08T03:22:35.433Z,93.00
2023-12-08T03:25:04.147Z,92.92
2023-12-08T03:27:32.552Z,93.11
2023-12-08T03:30:00.974Z,93.03
2023-12-08T03:32:29.751Z,93.09
2023-12-08T03:34:58.983Z,92.82
2023-12-08T03:37:27.498Z,92.82
2023-12-08T03:39:56.402Z,92.71
2023-12-08T03:42:24.783Z,92.90
2023-12-08T03:44:53.142Z,92.92
2023-12-08T03:47:21.481Z,92.72
2023-12-08T03:49:50.064Z,92.62
2023-12-08T03:52:18.459Z,92.59
2023-12-08T03:54:46.824Z,92.73
2023-12-08T03:57:15.194Z,92.55
2023-12-08T03:59:44.261Z,92.53
2023-12-08T04:02:13.075Z,92.40
2023-12-08T04:04:43.814Z,92.33
2023-12-08T04:07:12.168Z,92.53
2023-12-08T04:09:40.480Z,92.31
2023-12-08T04:12:08.946Z,92.27
2023-12-08T04:14:37.766Z,92.22
2023-12-08T04:17:06.407Z,92.35
2023-12-08T04:19:34.826Z,92.34
2023-12-08T04:22:03.154Z,92.18
2023-12-08T04:24:31.434Z,92.37
2023-12-08T04:26:59.862Z,92.24
2023-12-08T04:29:28.502Z,92.23
2023-12-08T04:31:56.776Z,92.17
2023-12-08T04:34:25.303Z,92.30
2023-12-08T04:36:54.526Z,91.98
2023-12-08T04:39:22.850Z,91.98
2023-12-08T04:41:51.293Z,91.88
2023-12-08T04:44:19.846Z,92.02
2023-12-08T04:46:48.459Z,92.13
2023-12-08T04:49:16.962Z,92.10
2023-12-08T04:51:45.559Z,91.92
2023-12-08T04:54:13.930Z,92.33
2023-12-08T04:56:42.477Z,92.23
2023-12-08T04:59:10.833Z,92.02
2023-12-08T05:01:39.089Z,92.14
2023-12-08T05:04:07.786Z,92.12
2023-12-08T05:06:37.615Z,92.15
2023-12-08T05:09:05.984Z,92.04
2023-12-08T05:11:34.450Z,92.15
2023-12-08T05:14:03.499Z,92.21
2023-12-08T05:16:31.832Z,91.97
2023-12-08T05:19:00.191Z,92.16
2023-12-08T05:21:28.560Z,91.95
2023-12-08T05:23:56.970Z,92.06
2023-12-08T05:26:25.819Z,92.05
2023-12-08T05:28:54.079Z,92.11
2023-12-08T05:31:22.429Z,92.05
2023-12-08T05:33:51.031Z,92.07
2023-12-08T05:36:20.052Z,92.12
2023-12-08T05:38:48.508Z,92.31
2023-12-08T05:41:16.907Z,92.03
2023-12-08T05:43:46.724Z,92.21
2023-12-08T05:46:15.100Z,92.18
2023-12-08T05:48:43.737Z,92.22
2023-12-08T05:51:12.211Z,92.11
2023-12-08T05:53:41.093Z,92.28
2023-12-08T05:56:11.900Z,92.07
2023-12-08T05:58:40.284Z,92.46
2023-12-08T06:01:08.790Z,92.18
2023-12-08T06:03:37.174Z,92.21
2023-12-08T06:06:07.050Z,92.30
2023-12-08T06:08:35.760Z,92.03
2023-12-08T06:11:05.378Z,91.94
2023-12-08T06:13:33.770Z,92.07
2023-12-08T06:16:04.350Z,92.13
2023-12-08T06:18:32.857Z,91.99
2023-12-08T06:21:01.347Z,91.97
2023-12-08T06:23:29.892Z,91.89
2023-12-08T06:25:58.158Z,92.04
2023-12-08T06:28:26.507Z,92.21
2023-12-08T06:30:54.857Z,92.01
2023-12-08T06:33:23.573Z,91.97
2023-12-08T06:35:52.040Z,91.76
2023-12-08T06:38:20.347Z,91.77
2023-12-08T06:40:48.657Z,92.11
2023-12-08T06:43:17.008Z,92.07
2023-12-08T06:45:45.312Z,91.88
2023-12-08T06:48:14.044Z,92.12
2023-12-08T06:50:42.669Z,92.06
2023-12-08T06:53:11.190Z,91.74
2023-12-08T06:55:39.517Z,91.91
2023-12-08T06:58:07.948Z,91.92
2023-12-08T07:00:36.712Z,91.74
2023-12-08T07:03:06.290Z,91.94
2023-12-08T07:05:35.368Z,92.09
2023-12-08T07:08:03.868Z,91.84
2023-12-08T07:10:32.259Z,91.80
2023-12-08T07:13:00.925Z,91.85
2023-12-08T07:15:29.281Z,91.69
2023-12-08T07:17:57.664Z,91.48
2023-12-08T07:20:26.088Z,91.68
2023-12-08T07:22:54.460Z,91.54
2023-12-08T07:25:23.079Z,91.63
2023-12-08T07:27:52.244Z,91.54
2023-12-08T07:30:20.741Z,91.65
2023-12-08T07:32:52.553Z,91.52
2023-12-08T07:35:21.240Z,91.63
2023-12-08T07:37:50.544Z,91.60
2023-12-08T07:40:19.804Z,91.85
2023-12-08T07:42:48.370Z,91.72
2023-12-08T07:45:17.192Z,91.45
2023-12-08T07:47:49.614Z,91.39
2023-12-08T07:50:18.659Z,91.37
2023-12-08T07:52:47.170Z,91.21
2023-12-08T07:55:17.603Z,91.56
2023-12-08T07:57:47.209Z,91.70
2023-12-08T08:00:20.123Z,91.67
2023-12-08T08:02:48.552Z,91.73
2023-12-08T08:05:17.072Z,91.44
2023-12-08T08:07:45.422Z,91.46
2023-12-08T08:10:13.857Z,91.39
2023-12-08T08:12:42.236Z,91.95
2023-12-08T08:15:10.881Z,92.03
2023-12-08T08:17:39.465Z,91.26
2023-12-08T08:20:09.036Z,91.29
2023-12-08T08:22:37.253Z,90.89
2023-12-08T08:25:07.445Z,91.05
2023-12-08T08:27:37.235Z,90.95
2023-12-08T08:30:08.188Z,90.95
2023-12-08T08:32:36.589Z,90.62
2023-12-08T08:35:06.152Z,90.80
2023-12-08T08:37:35.372Z,90.76
2023-12-08T08:40:06.133Z,90.78
2023-12-08T08:42:37.389Z,90.89
2023-12-08T08:45:08.983Z,90.69
2023-12-08T08:47:37.528Z,90.81
2023-12-08T08:50:07.681Z,90.97
2023-12-08T08:52:36.353Z,91.08
2023-12-08T08:55:06.684Z,90.95
2023-12-08T08:57:35.287Z,90.84
2023-12-08T09:00:05.207Z,90.67
2023-12-08T09:02:33.860Z,90.56
2023-12-08T09:05:03.498Z,90.77
2023-12-08T09:07:34.835Z,90.30
2023-12-08T09:10:03.979Z,90.27
2023-12-08T09:12:32.966Z,90.39
2023-12-08T09:15:01.664Z,90.39
2023-12-08T09:17:30.120Z,90.36
2023-12-08T09:19:58.532Z,90.55
2023-12-08T09:22:26.959Z,90.43
2023-12-08T09:24:55.438Z,90.42
2023-12-08T09:27:24.512Z,90.30
2023-12-08T09:29:53.181Z,90.53
2023-12-08T09:32:21.472Z,90.38
2023-12-08T09:34:50.120Z,90.19
2023-12-08T09:37:27.105Z,90.16
2023-12-08T09:40:06.047Z,90.19
2023-12-08T09:42:37.895Z,89.89
2023-12-08T09:45:10.048Z,89.36
2023-12-08T09:47:38.766Z,89.63
2023-12-08T09:50:10.282Z,89.43
2023-12-08T09:52:38.839Z,89.01
2023-12-08T09:55:09.027Z,89.38
2023-12-08T09:57:38.247Z,89.65
2023-12-08T10:00:12.801Z,89.87
2023-12-08T10:02:41.708Z,89.79
2023-12-08T10:05:11.702Z,90.01
2023-12-08T10:07:43.874Z,89.70
2023-12-08T10:10:12.193Z,89.40
2023-12-08T10:12:41.460Z,89.56
2023-12-08T10:15:11.991Z,89.03
2023-12-08T10:17:49.903Z,89.24
2023-12-08T10:20:21.403Z,89.19
2023-12-08T10:22:51.056Z,89.22
2023-12-08T10:25:21.006Z,89.16
2023-12-08T10:27:51.205Z,88.97
2023-12-08T10:30:21.003Z,89.08
2023-12-08T10:32:50.096Z,89.09
2023-12-08T10:35:18.929Z,89.09
2023-12-08T10:37:47.317Z,89.48
2023-12-08T10:40:19.894Z,88.88
2023-12-08T10:42:49.865Z,89.19
2023-12-08T10:45:18.682Z,89.04
2023-12-08T10:47:50.537Z,89.13
2023-12-08T10:50:19.415Z,89.08
2023-12-08T10:52:48.800Z,89.19
2023-12-08T10:55:17.385Z,89.00
2023-12-08T10:57:47.847Z,88.76
2023-12-08T11:00:19.884Z,89.05
2023-12-08T11:02:49.955Z,88.88
2023-12-08T11:05:26.237Z,88.63
2023-12-08T11:07:55.296Z,88.91
2023-12-08T11:10:24.863Z,88.79
2023-12-08T11:12:56.760Z,88.56
2023-12-08T11:15:25.244Z,88.52
2023-12-08T11:17:59.215Z,88.64
2023-12-08T11:20:26.724Z,88.65
2023-12-08T11:22:55.154Z,88.72
2023-12-08T11:25:28.692Z,88.73
2023-12-08T11:28:04.819Z,88.73
2023-12-08T11:30:39.549Z,89.16
2023-12-08T11:33:13.213Z,88.87
2023-12-08T11:35:41.774Z,88.36
2023-12-08T11:38:11.011Z,88.74
2023-12-08T11:40:56.559Z,88.68
2023-12-08T11:43:25.475Z,89.04
2023-12-08T11:45:53.985Z,89.12
2023-12-08T11:48:22.356Z,88.97
2023-12-08T11:50:50.945Z,88.72
2023-12-08T11:53:19.682Z,88.57
2023-12-08T11:55:48.009Z,88.56
2023-12-08T11:58:18.498Z,88.30
2023-12-08T12:00:48.930Z,88.57
2023-12-08T12:03:17.372Z,88.58
2023-12-08T12:05:46.010Z,88.68
2023-12-08T12:08:15.356Z,88.73
2023-12-08T12:10:47.018Z,88.68
2023-12-08T12:13:17.162Z,88.83
2023-12-08T12:15:45.770Z,88.82
2023-12-08T12:18:15.322Z,89.06
2023-12-08T12:20:46.624Z,88.93
2023-12-08T12:23:18.965Z,89.14
2023-12-08T12:25:48.956Z,88.98
2023-12-08T12:28:18.625Z,89.02
2023-12-08T12:30:49.612Z,88.87
2023-12-08T12:33:18.186Z,88.69
2023-12-08T12:35:51.952Z,88.90
2023-12-08T12:38:28.065Z,89.00
2023-12-08T12:40:56.521Z,88.74
2023-12-08T12:43:24.928Z,88.55
2023-12-08T12:45:53.424Z,88.67
2023-12-08T12:48:24.938Z,88.69
2023-12-08T12:50:53.647Z,88.54
2023-12-08T12:53:22.324Z,88.72
2023-12-08T12:55:51.187Z,88.64
2023-12-08T12:58:20.739Z,88.63
2023-12-08T13:00:49.703Z,88.83
2023-12-08T13:03:19.786Z,88.55
2023-12-08T13:05:50.308Z,88.48
2023-12-08T13:08:20.106Z,88.64
2023-12-08T13:10:48.977Z,88.61
2023-12-08T13:13:17.636Z,88.78
2023-12-08T13:15:46.525Z,88.65
2023-12-08T13:18:15.577Z,88.91
2023-12-08T13:20:45.165Z,88.95
2023-12-08T13:23:13.586Z,88.98
2023-12-08T13:25:42.042Z,89.06
2023-12-08T13:28:10.411Z,89.05
2023-12-08T13:30:38.727Z,89.01
2023-12-08T13:33:07.752Z,89.16
2023-12-08T13:35:36.633Z,89.22
2023-12-08T13:38:05.191Z,89.27
2023-12-08T13:40:33.612Z,89.22
2023-12-08T13:43:02.303Z,89.33
2023-12-08T13:45:31.407Z,89.23
2023-12-08T13:48:00.693Z,89.28
2023-12-08T13:50:29.487Z,89.00
2023-12-08T13:52:57.980Z,89.13
2023-12-08T13:55:26.380Z,89.28
2023-12-08T13:57:54.679Z,89.31
2023-12-08T14:00:22.992Z,89.60
2023-12-08T14:02:51.493Z,89.54
2023-12-08T14:05:20.004Z,89.62
2023-12-08T14:07:53.485Z,89.69
2023-12-08T14:10:22.097Z,89.89
2023-12-08T14:12:51.049Z,89.80
2023-12-08T14:15:19.945Z,89.80
2023-12-08T14:17:48.421Z,89.85
2023-12-08T14:20:16.896Z,89.85
2023-12-08T14:22:45.157Z,89.87
2023-12-08T14:25:13.677Z,89.83
2023-12-08T14:27:42.089Z,89.84
2023-12-08T14:30:11.633Z,89.96
2023-12-08T14:32:40.955Z,90.03
2023-12-08T14:35:18.646Z,89.98
2023-12-08T14:37:52.860Z,89.99
2023-12-08T14:40:21.840Z,89.98
2023-12-08T14:42:50.786Z,90.17
2023-12-08T14:45:19.233Z,90.00
2023-12-08T14:47:48.037Z,90.04
2023-12-08T14:50:16.572Z,89.94
2023-12-08T14:52:44.979Z,89.95
2023-12-08T14:55:16.233Z,89.86
2023-12-08T14:57:46.373Z,89.94
2023-12-08T15:00:16.276Z,90.00
2023-12-08T15:02:45.102Z,90.11
2023-12-08T15:05:13.894Z,90.24
2023-12-08T15:07:42.486Z,89.91
2023-12-08T15:10:11.303Z,90.09
2023-12-08T15:12:40.934Z,89.97
2023-12-08T15:15:10.924Z,90.23
2023-12-08T15:17:39.426Z,90.14
2023-12-08T15:20:11.233Z,90.26
2023-12-08T15:22:42.900Z,90.44
2023-12-08T15:25:11.646Z,90.37
2023-12-08T15:27:40.464Z,90.59
2023-12-08T15:30:10.385Z,90.51
2023-12-08T15:32:38.824Z,90.53
2023-12-08T15:35:08.897Z,90.73
2023-12-08T15:37:37.473Z,90.78
2023-12-08T15:40:08.236Z,90.91
2023-12-08T15:42:36.728Z,90.88
2023-12-08T15:45:06.881Z,90.88
2023-12-08T15:47:35.572Z,91.01
2023-12-08T15:50:04.544Z,90.81
2023-12-08T15:52:33.100Z,90.97
2023-12-08T15:55:01.659Z,91.13
2023-12-08T15:57:30.633Z,91.28
2023-12-08T15:59:59.245Z,91.53
2023-12-08T16:02:27.973Z,91.54
2023-12-08T16:04:56.493Z,91.43
2023-12-08T16:07:26.465Z,91.30
2023-12-08T16:09:55.249Z,90.96
2023-12-08T16:12:23.793Z,91.05
2023-12-08T16:14:52.367Z,91.10
2023-12-08T16:17:21.061Z,91.03
2023-12-08T16:19:49.416Z,91.25
2023-12-08T16:22:18.268Z,91.54
2023-12-08T16:24:47.208Z,91.48
2023-12-08T16:27:16.329Z,91.52
2023-12-08T16:29:44.908Z,91.79
2023-12-08T16:32:14.070Z,91.82
2023-12-08T16:34:42.956Z,92.08
2023-12-08T16:37:12.036Z,92.22
2023-12-08T16:39:40.430Z,91.76
2023-12-08T16:42:08.762Z,91.66
2023-12-08T16:44:37.295Z,91.80
2023-12-08T16:47:06.109Z,91.87
2023-12-08T16:49:34.847Z,91.85
2023-12-08T16:52:03.559Z,91.90
2023-12-08T16:54:31.894Z,91.93
2023-12-08T16:57:00.442Z,92.06
2023-12-08T16:59:30.140Z,92.14
2023-12-08T17:01:58.562Z,92.36
2023-12-08T17:04:27.462Z,92.23
2023-12-08T17:06:59.269Z,92.20
2023-12-08T17:09:28.652Z,92.22
2023-12-08T17:11:57.569Z,92.50
2023-12-08T17:14:26.032Z,92.38
2023-12-08T17:16:57.542Z,92.77
2023-12-08T17:19:26.271Z,92.70
2023-12-08T17:21:54.627Z,92.60
2023-12-08T17:24:25.213Z,92.80
2023-12-08T17:26:55.898Z,93.01
2023-12-08T17:29:24.998Z,92.78
2023-12-08T17:31:55.073Z,92.76
2023-12-08T17:34:25.294Z,92.89
2023-12-08T17:36:53.830Z,92.91
2023-12-08T17:39:22.680Z,93.05
2023-12-08T17:41:51.218Z,92.97
2023-12-08T17:44:19.504Z,92.87
2023-12-08T17:46:47.870Z,92.71
2023-12-08T17:49:16.307Z,92.56
2023-12-08T17:51:44.772Z,92.75
2023-12-08T17:54:13.301Z,92.64
2023-12-08T17:56:41.649Z,92.84
2023-12-08T17:59:10.196Z,92.75
2023-12-08T18:01:39.043Z,92.73
2023-12-08T18:04:07.467Z,93.09
2023-12-08T18:06:35.946Z,93.12
2023-12-08T18:09:05.559Z,93.00
2023-12-08T18:11:34.183Z,92.96
2023-12-08T18:14:04.452Z,93.14
2023-12-08T18:16:35.634Z,92.92
2023-12-08T18:19:04.251Z,92.97
2023-12-08T18:21:34.518Z,92.73
2023-12-08T18:24:04.590Z,92.76
2023-12-08T18:26:33.823Z,93.05
2023-12-08T18:29:08.910Z,92.97
2023-12-08T18:31:38.920Z,93.03
2023-12-08T18:34:08.553Z,92.92
2023-12-08T18:36:37.522Z,92.99
2023-12-08T18:39:06.871Z,93.27
2023-12-08T18:41:36.184Z,93.11
2023-12-08T18:44:04.858Z,93.20
2023-12-08T18:46:33.734Z,93.07
2023-12-08T18:49:03.896Z,93.11
2023-12-08T18:51:32.994Z,93.30
2023-12-08T18:54:02.121Z,93.34
2023-12-08T18:56:30.449Z,93.34
2023-12-08T18:58:58.979Z,93.39
2023-12-08T19:01:28.139Z,93.40
2023-12-08T19:03:56.571Z,93.27
2023-12-08T19:06:24.947Z,93.43
2023-12-08T19:08:53.415Z,93.35
2023-12-08T19:11:21.974Z,93.78
2023-12-08T19:13:50.433Z,93.53
2023-12-08T19:16:18.792Z,93.67
2023-12-08T19:18:48.388Z,93.71
2023-12-08T19:21:17.065Z,93.59
2023-12-08T19:23:45.590Z,93.49
2023-12-08T19:26:14.328Z,93.54
2023-12-08T19:28:45.480Z,93.78
2023-12-08T19:31:14.213Z,93.82
2023-12-08T19:33:42.939Z,93.53
2023-12-08T19:36:15.202Z,93.69
2023-12-08T19:38:44.600Z,93.79
2023-12-08T19:41:13.146Z,93.64
2023-12-08T19:43:41.583Z,93.75
2023-12-08T19:46:09.873Z,93.71
2023-12-08T19:48:38.458Z,93.70
2023-12-08T19:51:07.435Z,93.98
2023-12-08T19:53:35.834Z,93.95
2023-12-08T19:56:05.260Z,93.77
2023-12-08T19:58:33.679Z,93.96
2023-12-08T20:01:02.161Z,94.01
2023-12-08T20:03:31.352Z,93.78
2023-12-08T20:05:59.874Z,93.80
2023-12-08T20:08:28.500Z,93.82
2023-12-08T20:10:57.997Z,93.86
2023-12-08T20:13:26.324Z,93.66
2023-12-08T20:15:54.781Z,93.77
2023-12-08T20:18:23.282Z,93.64
2023-12-08T20:20:52.006Z,93.54
2023-12-08T20:23:20.542Z,93.50
2023-12-08T20:25:48.874Z,93.50
2023-12-08T20:28:17.250Z,93.62
2023-12-08T20:30:46.258Z,93.82
2023-12-08T20:33:14.902Z,94.14
2023-12-08T20:35:44.235Z,93.90
2023-12-08T20:38:12.675Z,94.10
2023-12-08T20:40:41.860Z,93.97
2023-12-08T20:43:12.299Z,94.24
2023-12-08T20:45:40.813Z,94.21
2023-12-08T20:48:09.310Z,94.25
2023-12-08T20:50:38.336Z,94.25
2023-12-08T20:53:07.136Z,94.29
2023-12-08T20:55:35.467Z,94.31
2023-12-08T20:58:03.901Z,94.13
2023-12-08T21:00:32.298Z,94.42
2023-12-08T21:03:00.836Z,94.32
2023-12-08T21:05:29.345Z,94.17
2023-12-08T21:07:57.846Z,94.23
2023-12-08T21:10:26.286Z,94.27
2023-12-08T21:12:54.591Z,94.29
2023-12-08T21:15:23.029Z,94.32
2023-12-08T21:17:52.664Z,94.39
2023-12-08T21:20:21.043Z,94.32
2023-12-08T21:22:49.782Z,94.46
2023-12-08T21:25:18.722Z,94.16
2023-12-08T21:27:47.194Z,94.51
2023-12-08T21:30:15.811Z,94.01
2023-12-08T21:32:46.126Z,94.41
2023-12-08T21:35:14.622Z,94.23
2023-12-08T21:37:43.081Z,94.21
2023-12-08T21:40:12.427Z,94.27
2023-12-08T21:42:44.971Z,94.10
2023-12-08T21:45:13.788Z,94.08
2023-12-08T21:47:42.366Z,94.29
2023-12-08T21:50:11.430Z,94.13
2023-12-08T21:52:39.798Z,94.17
2023-12-08T21:55:09.344Z,94.37
2023-12-08T21:57:37.779Z,94.20
2023-12-08T22:00:08.792Z,94.36
2023-12-08T22:02:37.269Z,94.27
2023-12-08T22:05:07.682Z,94.51
2023-12-08T22:07:36.230Z,94.75
2023-12-08T22:10:06.618Z,95.14
2023-12-08T22:12:35.002Z,95.27
2023-12-08T22:15:03.617Z,95.31
2023-12-08T22:17:32.076Z,95.02
2023-12-08T22:20:00.469Z,95.33
2023-12-08T22:22:28.872Z,95.54
2023-12-08T22:24:57.257Z,95.13
2023-12-08T22:27:26.349Z,95.41
2023-12-08T22:29:55.324Z,95.27
2023-12-08T22:32:23.735Z,95.73
2023-12-08T22:34:52.209Z,95.74
2023-12-08T22:37:20.593Z,95.86
2023-12-08T22:39:48.929Z,96.01
2023-12-08T22:42:17.372Z,95.54
2023-12-08T22:44:45.807Z,96.02
2023-12-08T22:47:14.191Z,95.87
2023-12-08T22:49:42.548Z,95.83
2023-12-08T22:52:10.865Z,95.92
2023-12-08T22:54:39.477Z,95.74
2023-12-08T22:57:07.882Z,95.62
2023-12-08T22:59:36.304Z,95.90
2023-12-08T23:02:05.313Z,95.66
2023-12-08T23:04:33.825Z,95.65
2023-12-08T23:07:02.166Z,95.42
2023-12-08T23:09:30.818Z,95.40
2023-12-08T23:11:59.226Z,95.41
2023-12-08T23:14:27.614Z,95.75
2023-12-08T23:16:55.886Z,95.84
2023-12-08T23:19:24.446Z,95.92
2023-12-08T23:21:56.172Z,95.68
2023-12-08T23:24:26.344Z,95.42
2023-12-08T23:26:54.703Z,95.39
2023-12-08T23:29:23.125Z,95.41
2023-12-08T23:31:51.929Z,95.52
2023-12-08T23:34:20.467Z,95.41
2023-12-08T23:36:49.345Z,95.41
2023-12-08T23:39:18.063Z,95.52
2023-12-08T23:41:46.529Z,95.33
2023-12-08T23:44:14.877Z,95.30
2023-12-08T23:46:43.299Z,95.19
2023-12-08T23:49:12.230Z,95.11
2023-12-08T23:51:41.704Z,95.44
2023-12-08T23:54:10.255Z,95.24
2023-12-08T23:56:38.609Z,95.21
2023-12-08T23:59:07.050Z,95.01
